Time;durP1;ratioP1;P1;durP2;ratioP2;P2;SDS_P1;SDS_P2;PMS_P1;PMS_P2;Temp;Humidity;BMP_temperature;BMP_pressure;BME280_temperature;BME280_humidity;BME280_pressure;Samples;Min_cycle;Max_cycle;Signal;HPM_P1;HPM_P2
2022/09/30 00:00:10;;;;;;;5.30;3.70;;;;;;;9.43;nan;99669.59;4933709;28;20047;-67
2022/09/30 00:02:35;;;;;;;6.40;3.78;;;;;;;9.46;nan;99674.56;4925130;28;20035;-67
2022/09/30 00:05:01;;;;;;;7.45;3.80;;;;;;;9.48;nan;99667.28;4938951;28;20175;-66
2022/09/30 00:07:26;;;;;;;4.53;3.45;;;;;;;9.51;nan;99668.75;4929622;28;20139;-67
2022/09/30 00:09:51;;;;;;;5.63;3.72;;;;;;;9.52;nan;99673.88;4936733;28;20048;-68
2022/09/30 00:12:17;;;;;;;6.57;3.95;;;;;;;9.51;nan;99668.75;4929446;28;20050;-66
2022/09/30 00:14:42;;;;;;;6.07;4.20;;;;;;;9.54;nan;99668.44;4931478;28;20046;-67
2022/09/30 00:17:08;;;;;;;5.43;3.45;;;;;;;9.55;nan;99662.97;4931251;28;20110;-67
2022/09/30 00:19:33;;;;;;;5.03;3.30;;;;;;;9.67;nan;99668.75;4923094;28;20423;-67
2022/09/30 00:21:58;;;;;;;5.17;3.50;;;;;;;9.65;nan;99660.16;4927141;28;20043;-66
2022/09/30 00:24:23;;;;;;;5.53;3.53;;;;;;;9.63;nan;99664.81;4921710;28;20356;-66
2022/09/30 00:26:49;;;;;;;5.93;4.10;;;;;;;9.62;nan;99667.59;4937988;28;20074;-66
2022/09/30 00:29:14;;;;;;;6.70;3.70;;;;;;;9.60;nan;99666.94;4925617;29;20043;-67
2022/09/30 00:31:40;;;;;;;5.45;3.60;;;;;;;9.59;nan;99666.13;4928372;29;20082;-67
2022/09/30 00:34:10;;;;;;;5.20;3.50;;;;;;;9.59;nan;99662.66;4925408;28;20040;-68
2022/09/30 00:36:42;;;;;;;5.85;3.40;;;;;;;9.57;nan;99657.53;4922560;28;20032;-67
2022/09/30 00:39:10;;;;;;;5.82;3.80;;;;;;;9.56;nan;99664.66;4930818;28;20035;-66
2022/09/30 00:41:36;;;;;;;4.68;3.40;;;;;;;9.60;nan;99666.94;4927537;28;20444;-68
2022/09/30 00:44:01;;;;;;;4.95;3.60;;;;;;;9.60;nan;99659.84;4925894;29;20049;-67
2022/09/30 00:46:32;;;;;;;4.93;2.90;;;;;;;9.59;nan;99662.66;4918722;28;20044;-66
2022/09/30 00:49:02;;;;;;;4.18;2.78;;;;;;;9.57;nan;99661.00;4919208;29;20042;-68
2022/09/30 00:51:32;;;;;;;4.03;2.70;;;;;;;9.54;nan;99669.25;4916215;28;20039;-67
2022/09/30 00:54:02;;;;;;;5.10;3.03;;;;;;;9.51;nan;99661.69;4936184;28;20050;-66
2022/09/30 00:56:33;;;;;;;4.88;3.40;;;;;;;9.47;nan;99660.34;4949681;28;20125;-66
2022/09/30 00:59:05;;;;;;;7.00;3.73;;;;;;;9.38;nan;99666.63;4937282;28;20071;-67
2022/09/30 01:01:31;;;;;;;4.07;3.10;;;;;;;9.36;nan;99668.59;4948072;28;20046;-67
2022/09/30 01:04:04;;;;;;;3.92;2.67;;;;;;;9.36;nan;99663.31;4938724;28;20031;-66
2022/09/30 01:06:30;;;;;;;3.40;2.53;;;;;;;9.34;nan;99660.03;4935132;28;20031;-68
2022/09/30 01:08:57;;;;;;;3.35;2.45;;;;;;;9.34;nan;99666.16;4926456;29;20505;-67
2022/09/30 01:11:23;;;;;;;3.63;2.65;;;;;;;9.30;nan;99662.19;4947201;28;20065;-66
2022/09/30 01:13:53;;;;;;;4.88;2.75;;;;;;;9.28;nan;99665.97;4938057;28;20131;-67
2022/09/30 01:16:57;;;;;;;4.55;2.60;;;;;;;9.28;nan;99668.63;4943777;28;20099;-67
2022/09/30 01:19:43;;;;;;;3.67;2.40;;;;;;;9.29;nan;99675.53;4903025;29;20519;-66
2022/09/30 01:22:21;;;;;;;5.40;2.83;;;;;;;9.29;nan;99680.81;4935056;28;20051;-66
2022/09/30 01:24:46;;;;;;;3.85;2.40;;;;;;;9.30;nan;99682.47;4929216;29;20036;-67
2022/09/30 01:27:42;;;;;;;3.40;2.33;;;;;;;9.35;nan;99693.34;4933248;28;20031;-67
2022/09/30 01:30:32;;;;;;;3.45;2.40;;;;;;;9.32;nan;99680.50;4925903;28;20040;-66
2022/09/30 01:33:25;;;;;;;4.47;2.10;;;;;;;9.33;nan;99682.94;4923800;28;20036;-66
2022/09/30 01:36:09;;;;;;;4.78;2.60;;;;;;;9.31;nan;99679.66;4917878;28;20040;-67
2022/09/30 01:39:07;;;;;;;3.92;2.25;;;;;;;9.32;nan;99683.13;4915532;28;20063;-67
2022/09/30 01:41:41;;;;;;;2.95;2.13;;;;;;;9.32;nan;99685.78;4914053;29;20122;-67
2022/09/30 01:44:18;;;;;;;4.50;2.80;;;;;;;9.32;nan;99691.03;4927402;28;20199;-66
2022/09/30 01:46:52;;;;;;;4.55;2.70;;;;;;;9.29;nan;99686.91;4923668;28;20102;-67
2022/09/30 01:49:18;;;;;;;3.60;2.60;;;;;;;9.28;nan;99687.91;4938251;28;20755;-66
2022/09/30 01:52:00;;;;;;;3.92;2.80;;;;;;;9.29;nan;99696.63;4925628;28;20064;-67
2022/09/30 01:54:53;;;;;;;4.03;2.50;;;;;;;9.30;nan;99695.66;4927301;29;24522;-67
2022/09/30 01:57:29;;;;;;;3.88;2.45;;;;;;;9.34;nan;99704.88;4929318;28;20052;-67
2022/09/30 02:00:05;;;;;;;5.22;2.80;;;;;;;9.34;nan;99708.34;4932794;28;20032;-67
2022/09/30 02:02:35;;;;;;;3.90;2.72;;;;;;;9.36;nan;99714.28;4929987;28;20448;-67
2022/09/30 02:05:36;;;;;;;5.20;3.08;;;;;;;9.38;nan;99719.41;4938363;28;20039;-66
2022/09/30 02:08:23;;;;;;;5.60;3.72;;;;;;;9.40;nan;99720.06;4904259;29;20042;-68
2022/09/30 02:11:04;;;;;;;4.75;3.30;;;;;;;9.42;nan;99725.19;4934200;28;20050;-66
2022/09/30 02:13:53;;;;;;;5.88;3.25;;;;;;;9.46;nan;99723.84;4914434;29;20038;-68
2022/09/30 02:16:39;;;;;;;3.85;3.03;;;;;;;9.51;nan;99721.53;4937504;28;20062;-68
2022/09/30 02:19:16;;;;;;;5.10;3.38;;;;;;;9.53;nan;99725.69;4917804;28;20039;-67
2022/09/30 02:21:46;;;;;;;4.60;2.80;;;;;;;9.52;nan;99717.91;4933415;28;20540;-67
2022/09/30 02:24:16;;;;;;;2.90;2.20;;;;;;;9.53;nan;99722.19;4938381;28;20123;-67
2022/09/30 02:26:45;;;;;;;5.40;2.17;;;;;;;9.52;nan;99725.84;4933765;28;20040;-67
2022/09/30 02:29:34;;;;;;;3.55;2.40;;;;;;;9.50;nan;99722.53;4927534;29;20032;-66
2022/09/30 02:32:10;;;;;;;3.58;1.75;;;;;;;9.51;nan;99735.56;4914619;28;20040;-67
2022/09/30 02:34:40;;;;;;;3.83;2.13;;;;;;;9.53;nan;99727.47;4909779;29;20393;-68
2022/09/30 02:37:15;;;;;;;4.57;1.98;;;;;;;9.50;nan;99726.00;4926823;28;20039;-67
2022/09/30 02:40:02;;;;;;;3.47;1.95;;;;;;;9.48;nan;99725.31;4919822;29;20043;-67
2022/09/30 02:42:29;;;;;;;3.58;2.20;;;;;;;9.49;nan;99727.00;4924873;29;20114;-69
2022/09/30 02:45:00;;;;;;;4.53;2.30;;;;;;;9.47;nan;99726.34;4929637;28;20166;-67
2022/09/30 02:47:43;;;;;;;3.30;1.92;;;;;;;9.46;nan;99722.06;4917298;28;20639;-68
2022/09/30 02:50:38;;;;;;;2.53;1.73;;;;;;;9.47;nan;99721.06;4927961;28;20039;-68
2022/09/30 02:53:22;;;;;;;3.65;2.15;;;;;;;9.47;nan;99712.31;4919923;29;20035;-68
2022/09/30 02:56:09;;;;;;;4.00;1.95;;;;;;;9.48;nan;99725.31;4940664;28;20059;-68
2022/09/30 02:58:38;;;;;;;2.63;1.80;;;;;;;9.49;nan;99720.91;4923491;28;20042;-67
2022/09/30 03:01:07;;;;;;;2.90;1.67;;;;;;;9.50;nan;99730.44;4927696;28;20039;-68
2022/09/30 03:03:44;;;;;;;3.13;1.88;;;;;;;9.51;nan;99724.16;4920573;29;20051;-68
2022/09/30 03:06:11;;;;;;;2.78;1.80;;;;;;;9.53;nan;99735.41;4933631;28;20327;-67
2022/09/30 03:08:36;;;;;;;3.13;1.95;;;;;;;9.54;nan;99731.78;4923663;28;20040;-69
2022/09/30 03:11:03;;;;;;;6.05;2.40;;;;;;;9.54;nan;99732.59;4926602;28;20050;-68
2022/09/30 03:13:43;;;;;;;2.97;1.80;;;;;;;9.54;nan;99735.25;4932253;28;20464;-67
2022/09/30 03:16:49;;;;;;;3.47;2.33;;;;;;;9.55;nan;99736.06;4930069;28;20043;-68
2022/09/30 03:19:41;;;;;;;3.10;1.77;;;;;;;9.53;nan;99738.88;4921649;28;20050;-67
2022/09/30 03:22:33;;;;;;;3.50;1.90;;;;;;;9.54;nan;99737.88;4932753;28;20028;-68
2022/09/30 03:25:08;;;;;;;2.22;1.50;;;;;;;9.55;nan;99743.97;4923182;29;20044;-67
2022/09/30 03:27:54;;;;;;;2.65;1.60;;;;;;;9.55;nan;99751.91;4942996;28;20038;-68
2022/09/30 03:30:25;;;;;;;2.63;1.60;;;;;;;9.55;nan;99752.72;4890616;28;20127;-67
2022/09/30 03:33:11;;;;;;;3.17;1.60;;;;;;;9.55;nan;99751.91;4922374;28;20071;-68
2022/09/30 03:35:58;;;;;;;2.15;1.25;;;;;;;9.57;nan;99748.09;4915234;29;20048;-67
2022/09/30 03:38:52;;;;;;;2.08;1.50;;;;;;;9.57;nan;99744.66;4928570;28;20409;-67
2022/09/30 03:41:40;;;;;;;2.40;1.60;;;;;;;9.55;nan;99755.34;4936570;28;20051;-67
2022/09/30 03:44:27;;;;;;;2.92;1.58;;;;;;;9.52;nan;99758.31;4922340;28;20046;-67
2022/09/30 03:46:58;;;;;;;3.40;1.88;;;;;;;9.48;nan;99761.47;4920694;29;20086;-67
2022/09/30 03:49:31;;;;;;;4.50;2.13;;;;;;;9.46;nan;99756.38;4930057;28;20035;-68
2022/09/30 03:51:59;;;;;;;5.72;3.00;;;;;;;9.35;nan;99752.22;4919817;28;20185;-67
2022/09/30 03:54:24;;;;;;;4.57;2.53;;;;;;;9.28;nan;99750.41;4928221;28;20043;-67
2022/09/30 03:56:50;;;;;;;5.88;3.30;;;;;;;9.22;nan;99753.66;4930853;28;20388;-67
2022/09/30 03:59:22;;;;;;;3.58;2.60;;;;;;;9.18;nan;99757.63;4934688;28;20039;-67
2022/09/30 04:01:48;;;;;;;7.05;3.67;;;;;;;9.10;nan;99761.88;4940904;28;20032;-68
2022/09/30 04:04:13;;;;;;;5.40;4.07;;;;;;;9.03;nan;99747.69;4932144;28;20301;-67
2022/09/30 04:06:38;;;;;;;5.47;3.70;;;;;;;8.95;nan;99755.59;4941155;28;20036;-68
2022/09/30 04:09:04;;;;;;;5.32;3.90;;;;;;;8.87;nan;99761.66;4929264;28;20043;-67
2022/09/30 04:11:29;;;;;;;5.25;3.67;;;;;;;8.80;nan;99765.09;4938539;28;20046;-67
2022/09/30 04:13:54;;;;;;;6.32;3.97;;;;;;;8.71;nan;99764.22;4951121;28;20118;-66
2022/09/30 04:16:19;;;;;;;4.80;3.78;;;;;;;8.64;nan;99768.47;4931747;28;20058;-67
2022/09/30 04:18:45;;;;;;;4.20;3.22;;;;;;;8.57;nan;99764.81;4936104;28;20119;-67
2022/09/30 04:21:13;;;;;;;4.30;3.35;;;;;;;8.50;nan;99764.63;4937012;28;20035;-67
2022/09/30 04:23:40;;;;;;;4.13;2.75;;;;;;;8.41;nan;99769.00;4919563;28;20044;-68
2022/09/30 04:26:09;;;;;;;3.67;2.50;;;;;;;8.29;nan;99768.44;4916106;29;20040;-67
2022/09/30 04:28:34;;;;;;;4.38;2.90;;;;;;;8.22;nan;99783.22;4936351;28;20035;-68
2022/09/30 04:31:01;;;;;;;4.55;3.17;;;;;;;8.15;nan;99787.44;4922683;28;20039;-67
2022/09/30 04:33:27;;;;;;;4.47;3.28;;;;;;;8.07;nan;99784.75;4923985;28;20123;-67
2022/09/30 04:35:54;;;;;;;4.97;3.45;;;;;;;7.98;nan;99789.13;4921955;28;20144;-67
2022/09/30 04:38:19;;;;;;;6.68;4.20;;;;;;;7.90;nan;99796.97;4923059;28;20380;-67
2022/09/30 04:40:45;;;;;;;4.90;3.80;;;;;;;7.82;nan;99797.72;4929248;28;20289;-66
2022/09/30 04:43:10;;;;;;;7.10;4.30;;;;;;;7.76;nan;99800.94;4929069;28;20127;-66
2022/09/30 04:45:35;;;;;;;6.40;4.80;;;;;;;7.71;nan;99807.66;4930002;28;20040;-66
2022/09/30 04:48:00;;;;;;;5.85;4.00;;;;;;;7.68;nan;99814.06;4921868;29;20044;-66
2022/09/30 04:50:25;;;;;;;;;;;;;;;7.62;nan;99812.00;4929729;28;20191;-66
2022/09/30 04:52:51;;;;;;;;;;;;;;;7.60;nan;99816.59;4916511;28;19927;-66
2022/09/30 04:55:16;;;;;;;;;;;;;;;7.56;nan;99815.25;4931040;28;20435;-66
2022/09/30 04:57:45;;;;;;;9.05;5.60;;;;;;;7.52;nan;99817.34;4931106;29;19915;-65
2022/09/30 05:00:10;;;;;;;8.10;5.47;;;;;;;7.49;nan;99815.03;4929759;28;20403;-66
2022/09/30 05:02:36;;;;;;;;;;;;;;;7.43;nan;99820.88;4924977;28;20059;-66
2022/09/30 05:05:02;;;;;;;6.47;4.13;;;;;;;7.40;nan;99827.25;4922927;28;19970;-66
2022/09/30 05:07:29;;;;;;;8.30;5.18;;;;;;;7.41;nan;99833.34;4932049;28;20492;-66
2022/09/30 05:09:54;;;;;;;6.30;4.55;;;;;;;7.43;nan;99828.75;4919842;28;20044;-66
2022/09/30 05:12:19;;;;;;;5.40;3.88;;;;;;;7.48;nan;99828.31;4919142;28;20043;-66
2022/09/30 05:14:44;;;;;;;6.10;4.30;;;;;;;7.52;nan;99834.94;4915227;29;20123;-66
2022/09/30 05:17:10;;;;;;;5.07;3.55;;;;;;;7.58;nan;99842.22;4922556;28;20036;-65
2022/09/30 05:19:35;;;;;;;5.38;4.05;;;;;;;7.61;nan;99847.19;4918398;29;20035;-66
2022/09/30 05:22:00;;;;;;;7.03;4.07;;;;;;;7.61;nan;99844.56;4944481;28;20034;-66
2022/09/30 05:24:26;;;;;;;7.10;4.40;;;;;;;7.55;nan;99845.97;4919072;28;20036;-66
2022/09/30 05:26:51;;;;;;;6.85;4.72;;;;;;;7.50;nan;99857.94;4913201;29;20416;-66
2022/09/30 05:29:16;;;;;;;5.45;4.13;;;;;;;7.44;nan;99854.09;4919309;28;20047;-66
2022/09/30 05:31:41;;;;;;;6.05;3.92;;;;;;;7.40;nan;99853.56;4915667;29;20103;-66
2022/09/30 05:34:07;;;;;;;5.07;3.40;;;;;;;7.39;nan;99859.81;4933305;28;20438;-67
2022/09/30 05:36:32;;;;;;;5.13;3.30;;;;;;;7.37;nan;99859.13;4915763;28;20199;-65
2022/09/30 05:38:57;;;;;;;4.40;3.17;;;;;;;7.37;nan;99863.56;4923212;28;20564;-66
2022/09/30 05:41:23;;;;;;;4.30;3.15;;;;;;;7.35;nan;99865.50;4913197;29;20121;-66
2022/09/30 05:43:48;;;;;;;5.45;3.88;;;;;;;7.32;nan;99873.69;4931998;28;20504;-66
2022/09/30 05:46:18;;;;;;;6.38;4.97;;;;;;;7.30;nan;99879.09;4922884;28;20079;-66
2022/09/30 05:48:44;;;;;;;9.13;5.75;;;;;;;7.29;nan;99873.97;4936542;28;20043;-67
2022/09/30 05:51:10;;;;;;;7.00;4.57;;;;;;;7.30;nan;99883.53;4934381;28;20472;-66
2022/09/30 05:53:40;;;;;;;5.18;3.90;;;;;;;7.37;nan;99889.88;4916942;28;20536;-66
2022/09/30 05:56:07;;;;;;;8.07;5.10;;;;;;;7.47;nan;99889.81;4938171;28;20045;-66
2022/09/30 05:58:33;;;;;;;11.07;5.75;;;;;;;7.57;nan;99901.09;4924175;28;20118;-66
2022/09/30 06:01:07;;;;;;;6.82;4.80;;;;;;;7.66;nan;99910.72;4931954;28;20142;-67
2022/09/30 06:03:33;;;;;;;8.90;5.65;;;;;;;7.72;nan;99922.47;4915157;29;20531;-67
2022/09/30 06:05:58;;;;;;;8.32;5.72;;;;;;;7.79;nan;99924.34;4930559;29;20128;-67
2022/09/30 06:08:24;;;;;;;8.98;5.85;;;;;;;7.84;nan;99931.78;4923211;29;20308;-66
2022/09/30 06:10:49;;;;;;;6.53;4.90;;;;;;;7.90;nan;99933.84;4927204;28;20119;-66
2022/09/30 06:13:16;;;;;;;8.48;6.22;;;;;;;7.92;nan;99937.16;4921876;29;20048;-66
2022/09/30 06:15:41;;;;;;;10.23;6.53;;;;;;;7.95;nan;99938.66;4930877;28;20048;-67
2022/09/30 06:18:08;;;;;;;7.95;6.38;;;;;;;7.99;nan;99934.75;4921337;28;20032;-67
2022/09/30 06:20:35;;;;;;;12.55;7.65;;;;;;;7.98;nan;99936.53;4932872;28;20039;-66
2022/09/30 06:23:01;;;;;;;10.55;6.40;;;;;;;7.99;nan;99940.03;4929520;29;20119;-66
2022/09/30 06:25:28;;;;;;;10.63;6.75;;;;;;;8.04;nan;99935.13;4921173;29;20035;-67
2022/09/30 06:27:54;;;;;;;8.20;5.85;;;;;;;8.11;nan;99940.63;4932622;28;20043;-66
2022/09/30 06:30:20;;;;;;;10.48;6.75;;;;;;;8.19;nan;99938.88;4924739;28;20039;-66
2022/09/30 06:32:45;;;;;;;8.32;5.25;;;;;;;8.27;nan;99941.63;4939111;28;20043;-66
2022/09/30 06:35:11;;;;;;;7.95;5.43;;;;;;;8.42;nan;99943.75;4925965;28;20042;-66
2022/09/30 06:37:37;;;;;;;6.28;4.90;;;;;;;8.62;nan;99952.28;4924195;28;20040;-66
2022/09/30 06:40:04;;;;;;;6.75;4.22;;;;;;;8.77;nan;99963.09;4928898;28;20251;-66
2022/09/30 06:42:29;;;;;;;5.90;4.20;;;;;;;8.95;nan;99957.78;4923120;28;20048;-66
2022/09/30 06:44:55;;;;;;;7.75;4.72;;;;;;;9.16;nan;99968.81;4925081;28;20071;-66
2022/09/30 06:47:20;;;;;;;7.20;4.47;;;;;;;9.27;nan;99965.06;4922336;28;20075;-66
2022/09/30 06:49:46;;;;;;;9.40;6.13;;;;;;;9.32;nan;99981.25;4933460;28;20044;-66
2022/09/30 06:52:11;;;;;;;11.38;6.78;;;;;;;9.32;nan;99978.63;4932104;28;20037;-66
2022/09/30 06:54:38;;;;;;;12.52;7.53;;;;;;;9.29;nan;99979.75;4923442;28;20052;-66
2022/09/30 06:57:03;;;;;;;9.00;6.85;;;;;;;9.34;nan;99984.53;4924265;29;20059;-66
2022/09/30 06:59:28;;;;;;;8.45;6.28;;;;;;;9.49;nan;99985.63;4935565;28;20381;-66
2022/09/30 07:01:54;;;;;;;7.47;5.60;;;;;;;9.69;nan;99980.09;4933422;28;20055;-66
2022/09/30 07:04:20;;;;;;;10.73;5.78;;;;;;;9.89;nan;99981.50;4930056;28;20044;-66
2022/09/30 07:06:45;;;;;;;8.50;6.43;;;;;;;9.91;nan;99981.31;4921803;28;20067;-66
2022/09/30 07:09:11;;;;;;;9.55;6.10;;;;;;;9.94;nan;99978.38;4922564;28;20126;-68
2022/09/30 07:11:37;;;;;;;11.90;7.85;;;;;;;10.02;nan;99981.03;4926051;28;20043;-67
2022/09/30 07:14:04;;;;;;;12.70;7.60;;;;;;;10.09;nan;99981.22;4937497;28;20118;-67
2022/09/30 07:16:33;;;;;;;11.77;7.88;;;;;;;10.16;nan;99979.56;4930965;28;20071;-68
2022/09/30 07:19:00;;;;;;;11.18;7.55;;;;;;;10.10;nan;99985.50;4925948;29;20443;-68
2022/09/30 07:21:26;;;;;;;10.07;6.85;;;;;;;10.01;nan;99984.66;4931994;28;20047;-67
2022/09/30 07:23:52;;;;;;;9.63;7.20;;;;;;;9.98;nan;99984.97;4935542;28;20038;-67
2022/09/30 07:26:20;;;;;;;7.95;6.22;;;;;;;10.08;nan;99993.59;4924054;28;20359;-68
2022/09/30 07:28:46;;;;;;;12.15;7.63;;;;;;;10.24;nan;99991.97;4936515;28;20038;-67
2022/09/30 07:31:17;;;;;;;12.38;8.60;;;;;;;10.33;nan;99997.13;4935455;28;20036;-68
2022/09/30 07:33:43;;;;;;;11.88;8.40;;;;;;;10.38;nan;99997.47;4926613;28;20044;-67
2022/09/30 07:36:10;;;;;;;11.07;7.05;;;;;;;10.49;nan;100004.25;4917586;29;20464;-68
2022/09/30 07:38:39;;;;;;;9.93;7.10;;;;;;;10.50;nan;100007.72;4930852;28;20069;-67
2022/09/30 07:41:09;;;;;;;12.23;7.50;;;;;;;10.38;nan;100015.13;4929458;28;20127;-68
2022/09/30 07:43:38;;;;;;;11.88;6.72;;;;;;;10.35;nan;100013.66;4936759;28;20054;-66
2022/09/30 07:46:07;;;;;;;10.07;7.25;;;;;;;10.40;nan;100016.63;4920795;28;20284;-66
2022/09/30 07:49:33;;;;;;;10.68;6.95;;;;;;;10.33;nan;100026.19;4922226;29;20106;-66
2022/09/30 07:51:31;;;;;;;12.02;7.57;;;;;;;10.28;nan;100025.88;4913480;28;20709;-66
2022/09/30 07:54:01;;;;;;;7.47;5.47;;;;;;;10.39;nan;100032.63;4919797;29;20543;-66
2022/09/30 07:56:27;;;;;;;10.20;6.75;;;;;;;10.38;nan;100042.38;4934191;28;20114;-66
2022/09/30 07:58:54;;;;;;;11.57;7.45;;;;;;;10.41;nan;100047.34;4915420;29;20032;-66
2022/09/30 08:01:20;;;;;;;9.60;6.65;;;;;;;10.41;nan;100049.97;4927786;28;20555;-66
2022/09/30 08:03:45;;;;;;;7.82;5.65;;;;;;;10.46;nan;100044.22;4916793;29;20115;-66
2022/09/30 08:06:14;;;;;;;12.13;7.55;;;;;;;10.46;nan;100041.56;4932611;28;20490;-67
2022/09/30 08:08:40;;;;;;;9.55;7.00;;;;;;;10.38;nan;100042.38;4921405;28;20032;-66
2022/09/30 08:11:05;;;;;;;10.45;6.32;;;;;;;10.51;nan;100041.09;4926212;28;20283;-66
2022/09/30 08:13:31;;;;;;;11.88;6.75;;;;;;;10.53;nan;100041.75;4928980;28;20127;-66
2022/09/30 08:15:57;;;;;;;14.07;7.30;;;;;;;10.38;nan;100044.22;4923151;28;20040;-66
2022/09/30 08:18:22;;;;;;;9.23;6.82;;;;;;;10.41;nan;100055.28;4925199;28;20501;-66
2022/09/30 08:20:48;;;;;;;9.70;7.15;;;;;;;10.45;nan;100053.16;4921877;28;20095;-66
2022/09/30 08:23:13;;;;;;;8.93;7.00;;;;;;;10.52;nan;100050.69;4940922;28;20070;-65
2022/09/30 08:25:39;;;;;;;9.82;7.05;;;;;;;10.65;nan;100058.13;4914266;29;20058;-68
2022/09/30 08:28:04;;;;;;;12.00;7.57;;;;;;;10.75;nan;100058.78;4919194;28;20090;-67
2022/09/30 08:30:29;;;;;;;10.15;7.07;;;;;;;10.98;nan;100059.78;4917974;29;20273;-68
2022/09/30 08:32:54;;;;;;;7.88;6.22;;;;;;;11.25;nan;100057.81;4919533;28;20040;-67
2022/09/30 08:35:19;;;;;;;12.93;8.10;;;;;;;11.39;nan;100051.81;4935890;29;20044;-68
2022/09/30 08:37:45;;;;;;;9.45;7.13;;;;;;;11.55;nan;100069.47;4912600;29;20339;-68
2022/09/30 08:40:43;;;;;;;9.75;7.07;;;;;;;11.80;nan;100072.06;4923956;28;20058;-67
2022/09/30 08:43:38;;;;;;;8.15;6.53;;;;;;;;;;4916363;29;20043;-67
2022/09/30 08:46:26;;;;;;;7.28;5.70;;;;;;;;;;4905676;28;20447;-68
2022/09/30 08:49:11;;;;;;;7.95;5.90;;;;;;;;;;4920541;29;20040;-68
2022/09/30 08:51:41;;;;;;;8.10;5.43;;;;;;;;;;4915502;29;20067;-68
2022/09/30 08:54:10;;;;;;;8.85;6.78;;;;;;;;;;4922143;28;20099;-68
2022/09/30 08:56:35;;;;;;;9.35;7.10;;;;;;;;;;4915493;29;20040;-70
2022/09/30 08:59:06;;;;;;;8.67;6.20;;;;;;;;;;4928683;28;20035;-69
2022/09/30 09:01:36;;;;;;;11.38;8.27;;;;;;;;;;4924338;28;20292;-68
2022/09/30 09:04:03;;;;;;;7.43;5.77;;;;;;;;;;4920816;28;20139;-68
2022/09/30 09:06:34;;;;;;;8.77;7.30;;;;;;;14.33;nan;100063.00;4925407;28;20044;-69
2022/09/30 09:09:08;;;;;;;8.05;6.43;;;;;;;14.92;nan;100077.91;4922156;28;20186;-68
2022/09/30 09:11:35;;;;;;;8.23;6.25;;;;;;;15.49;nan;100069.78;4918962;28;20036;-67
2022/09/30 09:14:16;;;;;;;7.25;5.35;;;;;;;16.72;nan;100072.56;4920203;28;20127;-69
2022/09/30 09:16:47;;;;;;;;;;;;;;;17.74;nan;100075.00;4919496;29;20055;-66
2022/09/30 09:19:16;;;;;;;6.15;4.97;;;;;;;18.61;nan;100070.13;4919432;28;19919;-69
2022/09/30 09:21:53;;;;;;;7.40;6.13;;;;;;;19.06;nan;100072.72;4931320;28;20476;-66
2022/09/30 09:24:24;;;;;;;6.35;5.30;;;;;;;19.77;nan;100076.81;4920230;28;20504;-69
2022/09/30 09:26:52;;;;;;;6.22;5.00;;;;;;;20.44;nan;100084.06;4925394;28;20524;-67
2022/09/30 09:29:23;;;;;;;6.40;4.68;;;;;;;21.62;nan;100074.38;4915303;29;20047;-68
2022/09/30 09:31:48;;;;;;;;;;;;;;;22.24;nan;100073.78;4931857;28;20040;-67
2022/09/30 09:34:14;;;;;;;7.37;5.53;;;;;;;22.33;nan;100074.22;4924091;28;19971;-65
2022/09/30 09:36:55;;;;;;;;;;;;;;;22.94;nan;100069.91;4898317;29;20059;-65
2022/09/30 09:39:23;;;;;;;;;;;;;;;23.68;nan;100058.91;4919642;28;20010;-65
2022/09/30 09:42:16;;;;;;;5.43;4.22;;;;;;;24.32;nan;100055.63;4916259;29;20356;-65
2022/09/30 09:44:58;;;;;;;4.37;3.97;;;;;;;25.13;nan;100062.88;4917971;29;20416;-65
2022/09/30 09:47:23;;;;;;;5.05;3.90;;;;;;;25.85;nan;100066.00;4921630;28;20318;-65
2022/09/30 09:49:55;;;;;;;4.73;4.00;;;;;;;26.44;nan;100067.59;4917690;28;20469;-65
2022/09/30 09:52:39;;;;;;;;;;;;;;;26.65;nan;100068.47;4921927;28;20288;-66
2022/09/30 09:55:04;;;;;;;;;;;;;;;27.05;nan;100074.97;4932537;28;19930;-65
2022/09/30 09:57:32;;;;;;;6.20;3.40;;;;;;;27.78;nan;100081.94;4920722;28;19919;-66
2022/09/30 10:03:00;;;;;;;5.40;4.20;;;;;;;27.82;nan;100077.59;4919772;29;20408;-66
2022/09/30 10:05:28;;;;;;;6.80;4.80;;;;;;;27.49;nan;100091.50;4915804;29;20043;-66
2022/09/30 10:08:13;;;;;;;5.32;4.80;;;;;;;27.49;nan;100077.94;4937482;28;20422;-65
2022/09/30 10:10:57;;;;;;;5.75;4.05;;;;;;;28.37;nan;100073.00;4910799;29;20036;-66
2022/09/30 10:13:31;;;;;;;4.22;2.80;;;;;;;28.90;nan;100075.88;4908872;29;20035;-66
2022/09/30 10:15:59;;;;;;;3.55;3.20;;;;;;;29.09;nan;100078.75;4914457;29;20052;-65
2022/09/30 10:18:27;;;;;;;4.75;3.38;;;;;;;29.55;nan;100077.47;4921224;29;20040;-66
2022/09/30 10:20:56;;;;;;;3.67;2.85;;;;;;;29.77;nan;100072.38;4931148;29;20032;-66
2022/09/30 10:23:26;;;;;;;;;;;;;;;29.68;nan;100079.56;4923824;28;20043;-65
2022/09/30 10:25:56;;;;;;;3.95;2.80;;;;;;;30.07;nan;100070.34;4927051;28;19919;-66
2022/09/30 10:28:28;;;;;;;3.25;2.70;;;;;;;30.02;nan;100076.66;4917454;28;20107;-66
2022/09/30 10:31:04;;;;;;;4.32;2.80;;;;;;;30.42;nan;100071.00;4928783;28;20038;-66
2022/09/30 10:33:43;;;;;;;4.90;3.17;;;;;;;30.67;nan;100070.56;4914459;29;20075;-66
2022/09/30 10:36:20;;;;;;;3.70;2.70;;;;;;;31.42;nan;100073.47;4924036;28;20038;-66
2022/09/30 10:38:58;;;;;;;5.03;2.72;;;;;;;32.04;nan;100073.88;4911548;29;20476;-66
2022/09/30 10:41:27;;;;;;;3.45;2.70;;;;;;;32.16;nan;100073.34;4926692;28;20087;-66
2022/09/30 10:43:56;;;;;;;4.10;2.97;;;;;;;32.13;nan;100066.56;4919853;28;20938;-66
2022/09/30 10:46:26;;;;;;;;;;;;;;;32.52;nan;100069.81;4923432;28;20036;-66
2022/09/30 10:48:53;;;;;;;4.20;3.25;;;;;;;32.56;nan;100059.84;4926576;28;19925;-66
2022/09/30 10:51:28;;;;;;;4.03;2.90;;;;;;;32.75;nan;100063.25;4920154;28;20456;-66
2022/09/30 10:53:54;;;;;;;4.38;3.03;;;;;;;32.62;nan;100053.16;4923009;28;20094;-66
2022/09/30 10:56:40;;;;;;;4.03;3.47;;;;;;;32.94;nan;100051.25;4914085;28;20047;-66
2022/09/30 10:59:18;;;;;;;5.45;3.60;;;;;;;33.16;nan;100054.00;4928805;28;20028;-66
2022/09/30 11:01:56;;;;;;;5.35;3.00;;;;;;;33.33;nan;100045.06;4925837;28;20048;-66
2022/09/30 11:04:36;;;;;;;5.60;3.42;;;;;;;33.36;nan;100043.59;4932009;28;20055;-66
2022/09/30 11:07:39;;;;;;;3.78;2.90;;;;;;;33.78;nan;100039.41;4933724;28;20040;-66
2022/09/30 11:10:27;;;;;;;3.80;2.10;;;;;;;34.05;nan;100046.56;4908651;28;20103;-66
2022/09/30 11:13:03;;;;;;;3.45;3.05;;;;;;;34.28;nan;100048.38;4928551;28;20036;-66
2022/09/30 11:15:43;;;;;;;3.85;2.70;;;;;;;34.54;nan;100051.94;4931415;28;20408;-66
2022/09/30 11:18:22;;;;;;;3.42;2.85;;;;;;;34.26;nan;100048.72;4924014;29;20035;-66
2022/09/30 11:20:54;;;;;;;4.63;2.63;;;;;;;33.90;nan;100055.25;4917459;29;20050;-66
2022/09/30 11:23:28;;;;;;;5.03;2.85;;;;;;;33.70;nan;100056.66;4922263;28;20044;-66
2022/09/30 11:26:05;;;;;;;4.07;2.90;;;;;;;33.15;nan;100054.31;4925768;28;20907;-66
2022/09/30 11:29:26;;;;;;;3.40;2.28;;;;;;;31.49;nan;100055.56;4925382;28;20043;-66
2022/09/30 11:32:03;;;;;;;;;;;;;;;29.92;nan;100056.91;4835713;29;20057;-66
2022/09/30 11:34:56;;;;;;;3.65;2.30;;;;;;;28.64;nan;100049.97;4833299;29;19927;-66
2022/09/30 11:37:58;;;;;;;3.55;2.38;;;;;;;27.14;nan;100046.19;4903386;29;20384;-66
2022/09/30 11:40:29;;;;;;;3.00;2.20;;;;;;;26.42;nan;100040.75;4922864;28;20031;-66
2022/09/30 11:43:03;;;;;;;4.38;3.17;;;;;;;25.76;nan;100041.31;4918268;29;20078;-66
2022/09/30 11:46:01;;;;;;;3.55;3.17;;;;;;;24.70;nan;100037.66;4919208;29;20054;-66
2022/09/30 11:48:45;;;;;;;4.53;2.97;;;;;;;24.24;nan;100044.44;4908429;28;20040;-66
2022/09/30 11:51:40;;;;;;;4.72;2.80;;;;;;;23.88;nan;100038.66;4920677;28;20039;-66
2022/09/30 11:54:29;;;;;;;4.65;2.42;;;;;;;23.40;nan;100043.66;4933309;28;20045;-66
2022/09/30 11:57:20;;;;;;;4.85;3.10;;;;;;;22.75;nan;100046.94;4916038;28;20040;-66
2022/09/30 11:59:57;;;;;;;4.20;3.20;;;;;;;22.50;nan;100055.41;4929760;28;20068;-65
2022/09/30 12:02:33;;;;;;;5.15;3.67;;;;;;;22.18;nan;100053.16;4922881;29;20064;-65
2022/09/30 12:05:06;;;;;;;5.35;3.17;;;;;;;21.76;nan;100046.16;4925687;28;20042;-66
2022/09/30 12:07:45;;;;;;;6.18;3.22;;;;;;;21.41;nan;100044.31;4929070;28;20497;-66
2022/09/30 12:10:26;;;;;;;6.65;3.90;;;;;;;21.19;nan;100041.38;4924717;28;20102;-66
2022/09/30 12:13:01;;;;;;;;;;;;;;;20.65;nan;100037.91;4929561;28;20067;-65
2022/09/30 12:15:28;;;;;;;5.68;4.07;;;;;;;20.34;nan;100047.00;4921922;28;20451;-65
2022/09/30 12:17:59;;;;;;;8.60;4.60;;;;;;;20.06;nan;100039.53;4917479;29;20048;-65
2022/09/30 12:20:46;;;;;;;12.00;6.88;;;;;;;20.07;nan;100046.53;4923068;28;20577;-65
2022/09/30 12:23:32;;;;;;;6.63;4.50;;;;;;;19.98;nan;100050.59;4921755;29;20047;-65
2022/09/30 12:26:03;;;;;;;6.50;4.40;;;;;;;19.83;nan;100045.59;4922367;28;20059;-65